sensor_id;sensor_type;location;lat;lon;timestamp;temperature;humidity
22765;DHT22;11549;50.852;3.816;2022-09-30T00:01:52;9.50;99.90
22765;DHT22;11549;50.852;3.816;2022-09-30T00:04:23;9.60;99.90
22765;DHT22;11549;50.852;3.816;2022-09-30T00:06:52;9.60;99.90
22765;DHT22;11549;50.852;3.816;2022-09-30T00:09:20;9.60;99.90
22765;DHT22;11549;50.852;3.816;2022-09-30T00:11:49;9.60;99.90
22765;DHT22;11549;50.852;3.816;2022-09-30T00:14:21;9.60;99.90
22765;DHT22;11549;50.852;3.816;2022-09-30T00:16:49;9.50;99.90
22765;DHT22;11549;50.852;3.816;2022-09-30T00:19:18;9.50;99.90
22765;DHT22;11549;50.852;3.816;2022-09-30T00:21:47;9.50;99.90
22765;DHT22;11549;50.852;3.816;2022-09-30T00:24:15;9.50;99.90
22765;DHT22;11549;50.852;3.816;2022-09-30T00:26:44;9.50;99.90
22765;DHT22;11549;50.852;3.816;2022-09-30T00:29:12;9.50;99.90
22765;DHT22;11549;50.852;3.816;2022-09-30T00:31:41;9.50;99.90
22765;DHT22;11549;50.852;3.816;2022-09-30T00:34:10;9.50;99.90
22765;DHT22;11549;50.852;3.816;2022-09-30T00:36:40;9.50;99.90
22765;DHT22;11549;50.852;3.816;2022-09-30T00:39:12;9.50;99.90
22765;DHT22;11549;50.852;3.816;2022-09-30T00:41:42;9.50;99.90
22765;DHT22;11549;50.852;3.816;2022-09-30T00:44:46;9.60;99.90
22765;DHT22;11549;50.852;3.816;2022-09-30T00:50:35;9.60;99.90
22765;DHT22;11549;50.852;3.816;2022-09-30T00:53:09;9.60;99.90
22765;DHT22;11549;50.852;3.816;2022-09-30T00:55:45;9.60;99.90
22765;DHT22;11549;50.852;3.816;2022-09-30T00:58:19;9.50;99.90
22765;DHT22;11549;50.852;3.816;2022-09-30T01:00:48;9.50;99.90
22765;DHT22;11549;50.852;3.816;2022-09-30T01:03:19;9.50;99.90
22765;DHT22;11549;50.852;3.816;2022-09-30T01:05:51;9.40;99.90
22765;DHT22;11549;50.852;3.816;2022-09-30T01:08:20;9.30;99.90
22765;DHT22;11549;50.852;3.816;2022-09-30T01:10:49;9.20;99.90
22765;DHT22;11549;50.852;3.816;2022-09-30T01:13:18;9.20;99.90
22765;DHT22;11549;50.852;3.816;2022-09-30T01:16:08;9.20;99.90
22765;DHT22;11549;50.852;3.816;2022-09-30T01:18:56;9.20;99.90
22765;DHT22;11549;50.852;3.816;2022-09-30T01:24:45;9.30;99.90
22765;DHT22;11549;50.852;3.816;2022-09-30T01:27:29;9.30;99.90
22765;DHT22;11549;50.852;3.816;2022-09-30T01:30:08;9.30;99.90
22765;DHT22;11549;50.852;3.816;2022-09-30T01:32:58;9.20;99.90
22765;DHT22;11549;50.852;3.816;2022-09-30T01:35:39;9.20;99.90
22765;DHT22;11549;50.852;3.816;2022-09-30T01:38:14;9.20;99.90
22765;DHT22;11549;50.852;3.816;2022-09-30T01:40:49;9.10;99.90
22765;DHT22;11549;50.852;3.816;2022-09-30T01:43:26;9.10;99.90
22765;DHT22;11549;50.852;3.816;2022-09-30T01:46:01;9.20;99.90
22765;DHT22;11549;50.852;3.816;2022-09-30T01:48:39;9.20;99.90
22765;DHT22;11549;50.852;3.816;2022-09-30T01:51:12;9.20;99.90
22765;DHT22;11549;50.852;3.816;2022-09-30T01:53:48;9.20;99.90
22765;DHT22;11549;50.852;3.816;2022-09-30T01:56:20;9.20;99.90
22765;DHT22;11549;50.852;3.816;2022-09-30T01:58:53;9.20;99.90
22765;DHT22;11549;50.852;3.816;2022-09-30T02:01:27;9.20;99.90
22765;DHT22;11549;50.852;3.816;2022-09-30T02:04:02;9.20;99.90
22765;DHT22;11549;50.852;3.816;2022-09-30T02:06:34;9.20;99.90
22765;DHT22;11549;50.852;3.816;2022-09-30T02:09:06;9.20;99.90
22765;DHT22;11549;50.852;3.816;2022-09-30T02:11:37;9.30;99.90
22765;DHT22;11549;50.852;3.816;2022-09-30T02:14:11;9.30;99.90
22765;DHT22;11549;50.852;3.816;2022-09-30T02:16:46;9.50;99.90
22765;DHT22;11549;50.852;3.816;2022-09-30T02:19:19;9.50;99.90
22765;DHT22;11549;50.852;3.816;2022-09-30T02:21:56;9.50;99.90
22765;DHT22;11549;50.852;3.816;2022-09-30T02:24:26;9.50;99.90
22765;DHT22;11549;50.852;3.816;2022-09-30T02:27:00;9.50;99.90
22765;DHT22;11549;50.852;3.816;2022-09-30T02:29:33;9.50;99.90
22765;DHT22;11549;50.852;3.816;2022-09-30T02:32:06;9.40;99.90
22765;DHT22;11549;50.852;3.816;2022-09-30T02:34:40;9.30;99.90
22765;DHT22;11549;50.852;3.816;2022-09-30T02:37:12;9.30;99.90
22765;DHT22;11549;50.852;3.816;2022-09-30T02:39:46;9.20;99.90
22765;DHT22;11549;50.852;3.816;2022-09-30T02:42:20;9.10;99.90
22765;DHT22;11549;50.852;3.816;2022-09-30T02:44:49;9.00;99.90
22765;DHT22;11549;50.852;3.816;2022-09-30T02:47:25;9.00;99.90
22765;DHT22;11549;50.852;3.816;2022-09-30T02:50:00;9.00;99.90
22765;DHT22;11549;50.852;3.816;2022-09-30T02:52:37;9.00;99.90
22765;DHT22;11549;50.852;3.816;2022-09-30T02:55:16;9.00;99.90
22765;DHT22;11549;50.852;3.816;2022-09-30T02:57:54;9.00;99.90
22765;DHT22;11549;50.852;3.816;2022-09-30T03:00:24;9.00;99.90
22765;DHT22;11549;50.852;3.816;2022-09-30T03:02:57;9.00;99.90
22765;DHT22;11549;50.852;3.816;2022-09-30T03:05:29;8.90;99.90
22765;DHT22;11549;50.852;3.816;2022-09-30T03:07:58;8.80;99.90
22765;DHT22;11549;50.852;3.816;2022-09-30T03:10:26;8.90;99.90
22765;DHT22;11549;50.852;3.816;2022-09-30T03:13:18;8.80;99.90
22765;DHT22;11549;50.852;3.816;2022-09-30T03:16:01;8.80;99.90
22765;DHT22;11549;50.852;3.816;2022-09-30T03:18:58;8.60;99.90
22765;DHT22;11549;50.852;3.816;2022-09-30T03:21:44;8.70;99.90
22765;DHT22;11549;50.852;3.816;2022-09-30T03:24:26;8.80;99.90
22765;DHT22;11549;50.852;3.816;2022-09-30T03:27:06;8.90;99.90
22765;DHT22;11549;50.852;3.816;2022-09-30T03:29:44;8.90;99.90
22765;DHT22;11549;50.852;3.816;2022-09-30T03:32:24;8.90;99.90
22765;DHT22;11549;50.852;3.816;2022-09-30T03:35:01;8.90;99.90
22765;DHT22;11549;50.852;3.816;2022-09-30T03:37:39;8.90;99.90
22765;DHT22;11549;50.852;3.816;2022-09-30T03:40:15;8.90;99.90
22765;DHT22;11549;50.852;3.816;2022-09-30T03:42:53;8.90;99.90
22765;DHT22;11549;50.852;3.816;2022-09-30T03:45:27;8.90;99.90
22765;DHT22;11549;50.852;3.816;2022-09-30T03:48:02;8.90;99.90
22765;DHT22;11549;50.852;3.816;2022-09-30T03:50:32;8.80;99.90
22765;DHT22;11549;50.852;3.816;2022-09-30T03:53:08;8.70;99.90
22765;DHT22;11549;50.852;3.816;2022-09-30T03:55:45;8.70;99.90
22765;DHT22;11549;50.852;3.816;2022-09-30T03:58:18;8.70;99.90
22765;DHT22;11549;50.852;3.816;2022-09-30T04:00:49;8.60;99.90
22765;DHT22;11549;50.852;3.816;2022-09-30T04:03:20;8.70;99.90
22765;DHT22;11549;50.852;3.816;2022-09-30T04:05:49;8.70;99.90
22765;DHT22;11549;50.852;3.816;2022-09-30T04:08:18;8.70;99.90
22765;DHT22;11549;50.852;3.816;2022-09-30T04:10:48;8.60;99.90
22765;DHT22;11549;50.852;3.816;2022-09-30T04:13:16;8.50;99.90
22765;DHT22;11549;50.852;3.816;2022-09-30T04:15:53;8.50;99.90
22765;DHT22;11549;50.852;3.816;2022-09-30T04:18:21;8.50;99.90
22765;DHT22;11549;50.852;3.816;2022-09-30T04:20:49;8.40;99.90
22765;DHT22;11549;50.852;3.816;2022-09-30T04:23:19;8.50;99.90
22765;DHT22;11549;50.852;3.816;2022-09-30T04:25:51;8.50;99.90
22765;DHT22;11549;50.852;3.816;2022-09-30T04:28:19;8.60;99.90
22765;DHT22;11549;50.852;3.816;2022-09-30T04:30:48;8.60;99.90
22765;DHT22;11549;50.852;3.816;2022-09-30T04:33:16;8.50;99.90
22765;DHT22;11549;50.852;3.816;2022-09-30T04:35:45;8.60;99.90
22765;DHT22;11549;50.852;3.816;2022-09-30T04:38:13;8.50;99.90
22765;DHT22;11549;50.852;3.816;2022-09-30T04:40:43;8.60;99.90
22765;DHT22;11549;50.852;3.816;2022-09-30T04:43:11;8.60;99.90
22765;DHT22;11549;50.852;3.816;2022-09-30T04:45:42;8.50;99.90
22765;DHT22;11549;50.852;3.816;2022-09-30T04:48:11;8.60;99.90
22765;DHT22;11549;50.852;3.816;2022-09-30T04:50:40;8.60;99.90
22765;DHT22;11549;50.852;3.816;2022-09-30T04:53:11;8.60;99.90
22765;DHT22;11549;50.852;3.816;2022-09-30T04:55:40;8.70;99.90
22765;DHT22;11549;50.852;3.816;2022-09-30T04:58:10;8.70;99.90
22765;DHT22;11549;50.852;3.816;2022-09-30T05:00:38;8.70;99.90
22765;DHT22;11549;50.852;3.816;2022-09-30T05:03:07;8.70;99.90
22765;DHT22;11549;50.852;3.816;2022-09-30T05:05:35;8.70;99.90
22765;DHT22;11549;50.852;3.816;2022-09-30T05:08:04;8.70;99.90
22765;DHT22;11549;50.852;3.816;2022-09-30T05:10:32;8.70;99.90
22765;DHT22;11549;50.852;3.816;2022-09-30T05:13:01;8.60;99.90
22765;DHT22;11549;50.852;3.816;2022-09-30T05:15:33;8.60;99.90
22765;DHT22;11549;50.852;3.816;2022-09-30T05:18:02;8.70;99.90
22765;DHT22;11549;50.852;3.816;2022-09-30T05:20:32;8.80;99.90
22765;DHT22;11549;50.852;3.816;2022-09-30T05:23:00;8.80;99.90
22765;DHT22;11549;50.852;3.816;2022-09-30T05:25:28;8.80;99.90
22765;DHT22;11549;50.852;3.816;2022-09-30T05:27:56;8.80;99.90
22765;DHT22;11549;50.852;3.816;2022-09-30T05:30:25;8.80;99.90
22765;DHT22;11549;50.852;3.816;2022-09-30T05:32:54;8.90;99.90
22765;DHT22;11549;50.852;3.816;2022-09-30T05:35:23;8.90;99.90
22765;DHT22;11549;50.852;3.816;2022-09-30T05:37:51;8.90;99.90
22765;DHT22;11549;50.852;3.816;2022-09-30T05:40:19;8.90;99.90
22765;DHT22;11549;50.852;3.816;2022-09-30T05:42:47;8.90;99.90
22765;DHT22;11549;50.852;3.816;2022-09-30T05:45:16;8.90;99.90
22765;DHT22;11549;50.852;3.816;2022-09-30T05:47:50;8.90;99.90
22765;DHT22;11549;50.852;3.816;2022-09-30T05:50:21;8.90;99.90
22765;DHT22;11549;50.852;3.816;2022-09-30T05:52:50;8.90;99.90
22765;DHT22;11549;50.852;3.816;2022-09-30T05:55:19;8.90;99.90
22765;DHT22;11549;50.852;3.816;2022-09-30T05:57:49;9.00;99.90
22765;DHT22;11549;50.852;3.816;2022-09-30T06:00:18;9.00;99.90
22765;DHT22;11549;50.852;3.816;2022-09-30T06:02:50;9.00;99.90
22765;DHT22;11549;50.852;3.816;2022-09-30T06:05:20;9.00;99.90
22765;DHT22;11549;50.852;3.816;2022-09-30T06:07:49;9.00;99.90
22765;DHT22;11549;50.852;3.816;2022-09-30T06:10:17;9.10;99.90
22765;DHT22;11549;50.852;3.816;2022-09-30T06:12:45;9.10;99.90
22765;DHT22;11549;50.852;3.816;2022-09-30T06:15:14;9.10;99.90
22765;DHT22;11549;50.852;3.816;2022-09-30T06:17:42;9.10;99.90
22765;DHT22;11549;50.852;3.816;2022-09-30T06:20:10;9.10;99.90
22765;DHT22;11549;50.852;3.816;2022-09-30T06:22:40;9.10;99.90
22765;DHT22;11549;50.852;3.816;2022-09-30T06:25:10;9.20;99.90
22765;DHT22;11549;50.852;3.816;2022-09-30T06:27:38;9.20;99.90
22765;DHT22;11549;50.852;3.816;2022-09-30T06:30:07;9.20;99.90
22765;DHT22;11549;50.852;3.816;2022-09-30T06:32:35;9.30;99.90
22765;DHT22;11549;50.852;3.816;2022-09-30T06:35:05;9.40;99.90
22765;DHT22;11549;50.852;3.816;2022-09-30T06:37:33;9.40;99.90
22765;DHT22;11549;50.852;3.816;2022-09-30T06:40:06;9.40;99.90
22765;DHT22;11549;50.852;3.816;2022-09-30T06:42:35;9.60;99.90
22765;DHT22;11549;50.852;3.816;2022-09-30T06:45:04;9.70;99.90
22765;DHT22;11549;50.852;3.816;2022-09-30T06:47:32;9.70;99.90
22765;DHT22;11549;50.852;3.816;2022-09-30T06:50:00;9.80;99.90
22765;DHT22;11549;50.852;3.816;2022-09-30T06:52:29;9.90;99.90
22765;DHT22;11549;50.852;3.816;2022-09-30T06:54:57;10.00;99.90
22765;DHT22;11549;50.852;3.816;2022-09-30T06:57:27;10.10;99.90
22765;DHT22;11549;50.852;3.816;2022-09-30T06:59:55;10.20;99.90
22765;DHT22;11549;50.852;3.816;2022-09-30T07:02:23;10.30;99.90
22765;DHT22;11549;50.852;3.816;2022-09-30T07:04:52;10.30;99.90
22765;DHT22;11549;50.852;3.816;2022-09-30T07:07:20;10.50;99.90
22765;DHT22;11549;50.852;3.816;2022-09-30T07:09:48;10.60;99.90
22765;DHT22;11549;50.852;3.816;2022-09-30T07:12:18;10.70;99.90
22765;DHT22;11549;50.852;3.816;2022-09-30T07:14:48;11.00;99.90
22765;DHT22;11549;50.852;3.816;2022-09-30T07:17:17;11.40;99.90
22765;DHT22;11549;50.852;3.816;2022-09-30T07:19:45;12.00;99.90
22765;DHT22;11549;50.852;3.816;2022-09-30T07:22:13;12.70;99.90
22765;DHT22;11549;50.852;3.816;2022-09-30T07:24:57;13.60;99.90
22765;DHT22;11549;50.852;3.816;2022-09-30T07:27:28;14.60;99.90
22765;DHT22;11549;50.852;3.816;2022-09-30T07:29:58;15.40;99.90
22765;DHT22;11549;50.852;3.816;2022-09-30T07:32:46;16.10;99.90
22765;DHT22;11549;50.852;3.816;2022-09-30T07:35:15;16.50;99.90
22765;DHT22;11549;50.852;3.816;2022-09-30T07:37:45;16.70;99.90
22765;DHT22;11549;50.852;3.816;2022-09-30T07:40:13;17.10;99.90
22765;DHT22;11549;50.852;3.816;2022-09-30T07:42:42;17.50;99.90
22765;DHT22;11549;50.852;3.816;2022-09-30T07:45:13;17.90;99.90
22765;DHT22;11549;50.852;3.816;2022-09-30T07:47:43;18.50;99.90
22765;DHT22;11549;50.852;3.816;2022-09-30T07:50:18;18.80;99.90
22765;DHT22;11549;50.852;3.816;2022-09-30T07:52:47;19.10;99.90
22765;DHT22;11549;50.852;3.816;2022-09-30T07:55:15;19.50;99.90
22765;DHT22;11549;50.852;3.816;2022-09-30T07:57:43;19.80;99.90
22765;DHT22;11549;50.852;3.816;2022-09-30T08:00:13;20.00;99.90
22765;DHT22;11549;50.852;3.816;2022-09-30T08:03:01;20.20;99.90
22765;DHT22;11549;50.852;3.816;2022-09-30T08:05:29;20.20;99.90
22765;DHT22;11549;50.852;3.816;2022-09-30T08:07:57;20.10;99.90
22765;DHT22;11549;50.852;3.816;2022-09-30T08:10:26;20.30;99.90
22765;DHT22;11549;50.852;3.816;2022-09-30T08:12:54;20.50;99.90
22765;DHT22;11549;50.852;3.816;2022-09-30T08:15:28;20.70;99.90
22765;DHT22;11549;50.852;3.816;2022-09-30T08:17:56;20.90;99.90
22765;DHT22;11549;50.852;3.816;2022-09-30T08:20:25;21.00;99.90
22765;DHT22;11549;50.852;3.816;2022-09-30T08:22:53;20.90;99.90
22765;DHT22;11549;50.852;3.816;2022-09-30T08:25:25;20.70;99.90
22765;DHT22;11549;50.852;3.816;2022-09-30T08:27:54;20.70;99.90
22765;DHT22;11549;50.852;3.816;2022-09-30T08:30:23;20.80;99.90
22765;DHT22;11549;50.852;3.816;2022-09-30T08:32:52;20.90;99.90
22765;DHT22;11549;50.852;3.816;2022-09-30T08:35:21;21.00;99.90
22765;DHT22;11549;50.852;3.816;2022-09-30T08:37:49;21.20;99.90
22765;DHT22;11549;50.852;3.816;2022-09-30T08:40:20;21.30;99.90
22765;DHT22;11549;50.852;3.816;2022-09-30T08:43:00;21.50;99.90
22765;DHT22;11549;50.852;3.816;2022-09-30T08:45:36;21.70;99.90
22765;DHT22;11549;50.852;3.816;2022-09-30T08:48:17;21.60;99.90
22765;DHT22;11549;50.852;3.816;2022-09-30T08:50:52;21.50;99.90
22765;DHT22;11549;50.852;3.816;2022-09-30T08:53:26;21.70;99.90
22765;DHT22;11549;50.852;3.816;2022-09-30T08:55:57;21.70;99.90
22765;DHT22;11549;50.852;3.816;2022-09-30T08:58:35;21.80;99.90
22765;DHT22;11549;50.852;3.816;2022-09-30T09:01:14;21.80;99.90
22765;DHT22;11549;50.852;3.816;2022-09-30T09:03:45;21.90;99.90
22765;DHT22;11549;50.852;3.816;2022-09-30T09:06:25;22.00;99.90
22765;DHT22;11549;50.852;3.816;2022-09-30T09:12:04;22.20;99.90
22765;DHT22;11549;50.852;3.816;2022-09-30T09:14:43;22.30;99.90
22765;DHT22;11549;50.852;3.816;2022-09-30T09:17:25;22.10;99.90
22765;DHT22;11549;50.852;3.816;2022-09-30T09:20:01;22.20;99.90
22765;DHT22;11549;50.852;3.816;2022-09-30T09:22:31;22.20;99.90
22765;DHT22;11549;50.852;3.816;2022-09-30T09:25:01;22.10;99.90
22765;DHT22;11549;50.852;3.816;2022-09-30T09:27:40;22.10;99.90
22765;DHT22;11549;50.852;3.816;2022-09-30T09:30:11;22.00;99.90
22765;DHT22;11549;50.852;3.816;2022-09-30T09:32:41;22.00;99.90
22765;DHT22;11549;50.852;3.816;2022-09-30T09:35:15;22.20;99.90
22765;DHT22;11549;50.852;3.816;2022-09-30T09:37:50;22.30;99.90
22765;DHT22;11549;50.852;3.816;2022-09-30T09:40:46;22.60;99.90
22765;DHT22;11549;50.852;3.816;2022-09-30T09:43:29;22.90;99.90
22765;DHT22;11549;50.852;3.816;2022-09-30T09:46:08;23.20;99.90
22765;DHT22;11549;50.852;3.816;2022-09-30T09:48:39;23.50;99.30
22765;DHT22;11549;50.852;3.816;2022-09-30T09:51:15;23.70;99.90
22765;DHT22;11549;50.852;3.816;2022-09-30T09:53:48;23.90;99.50
22765;DHT22;11549;50.852;3.816;2022-09-30T09:56:18;23.90;98.90
22765;DHT22;11549;50.852;3.816;2022-09-30T09:59:08;23.90;99.90
22765;DHT22;11549;50.852;3.816;2022-09-30T10:01:39;24.20;97.90
22765;DHT22;11549;50.852;3.816;2022-09-30T10:04:13;24.00;94.90
22765;DHT22;11549;50.852;3.816;2022-09-30T10:06:49;23.90;96.10
22765;DHT22;11549;50.852;3.816;2022-09-30T10:09:25;23.70;96.90
22765;DHT22;11549;50.852;3.816;2022-09-30T10:15:14;23.50;97.90
22765;DHT22;11549;50.852;3.816;2022-09-30T10:17:53;23.70;96.20
22765;DHT22;11549;50.852;3.816;2022-09-30T10:20:27;23.80;95.80
22765;DHT22;11549;50.852;3.816;2022-09-30T10:23:06;23.80;95.20
22765;DHT22;11549;50.852;3.816;2022-09-30T10:25:35;23.90;95.20
22765;DHT22;11549;50.852;3.816;2022-09-30T10:28:21;23.80;95.30
22765;DHT22;11549;50.852;3.816;2022-09-30T10:30:54;23.90;94.70
22765;DHT22;11549;50.852;3.816;2022-09-30T10:33:30;23.90;96.80
22765;DHT22;11549;50.852;3.816;2022-09-30T10:36:03;23.70;95.20
22765;DHT22;11549;50.852;3.816;2022-09-30T10:38:34;23.70;95.00
22765;DHT22;11549;50.852;3.816;2022-09-30T10:41:04;23.60;94.80
22765;DHT22;11549;50.852;3.816;2022-09-30T10:43:38;23.40;95.40
22765;DHT22;11549;50.852;3.816;2022-09-30T10:46:08;23.40;96.20
22765;DHT22;11549;50.852;3.816;2022-09-30T10:48:54;23.30;95.30
22765;DHT22;11549;50.852;3.816;2022-09-30T10:51:29;23.40;94.90
22765;DHT22;11549;50.852;3.816;2022-09-30T10:54:01;23.50;93.10
22765;DHT22;11549;50.852;3.816;2022-09-30T10:56:42;23.60;93.70
22765;DHT22;11549;50.852;3.816;2022-09-30T10:59:23;23.40;93.70
22765;DHT22;11549;50.852;3.816;2022-09-30T11:01:56;23.50;93.50
22765;DHT22;11549;50.852;3.816;2022-09-30T11:04:36;23.50;93.80
22765;DHT22;11549;50.852;3.816;2022-09-30T11:07:13;23.40;94.00
22765;DHT22;11549;50.852;3.816;2022-09-30T11:09:50;23.30;94.30
22765;DHT22;11549;50.852;3.816;2022-09-30T11:12:27;23.30;94.10
22765;DHT22;11549;50.852;3.816;2022-09-30T11:15:03;23.40;95.20
22765;DHT22;11549;50.852;3.816;2022-09-30T11:17:39;23.70;95.10
22765;DHT22;11549;50.852;3.816;2022-09-30T11:20:17;24.00;94.30
22765;DHT22;11549;50.852;3.816;2022-09-30T11:22:54;24.00;93.00
22765;DHT22;11549;50.852;3.816;2022-09-30T11:25:29;23.80;92.90
22765;DHT22;11549;50.852;3.816;2022-09-30T11:28:13;23.50;93.10
22765;DHT22;11549;50.852;3.816;2022-09-30T11:30:48;23.40;93.40
22765;DHT22;11549;50.852;3.816;2022-09-30T11:33:32;23.40;94.30
22765;DHT22;11549;50.852;3.816;2022-09-30T11:36:08;23.60;93.70
22765;DHT22;11549;50.852;3.816;2022-09-30T11:38:55;23.70;94.60
22765;DHT22;11549;50.852;3.816;2022-09-30T11:41:30;23.60;93.50
22765;DHT22;11549;50.852;3.816;2022-09-30T11:44:13;23.70;92.60
22765;DHT22;11549;50.852;3.816;2022-09-30T11:46:56;23.50;94.40
22765;DHT22;11549;50.852;3.816;2022-09-30T11:49:42;23.50;94.20
22765;DHT22;11549;50.852;3.816;2022-09-30T11:52:18;23.60;93.80
22765;DHT22;11549;50.852;3.816;2022-09-30T11:55:30;23.70;94.80
22765;DHT22;11549;50.852;3.816;2022-09-30T11:58:04;23.60;94.20
22765;DHT22;11549;50.852;3.816;2022-09-30T12:00:59;23.70;92.40
22765;DHT22;11549;50.852;3.816;2022-09-30T12:03:32;23.80;92.20
22765;DHT22;11549;50.852;3.816;2022-09-30T12:06:07;23.70;92.10
22765;DHT22;11549;50.852;3.816;2022-09-30T12:08:41;23.60;92.70
22765;DHT22;11549;50.852;3.816;2022-09-30T12:11:15;23.40;92.60
22765;DHT22;11549;50.852;3.816;2022-09-30T12:13:47;23.40;92.90
22765;DHT22;11549;50.852;3.816;2022-09-30T12:16:20;23.40;92.70
22765;DHT22;11549;50.852;3.816;2022-09-30T12:18:54;23.40;93.00
22765;DHT22;11549;50.852;3.816;2022-09-30T12:21:27;23.40;94.10
22765;DHT22;11549;50.852;3.816;2022-09-30T12:24:01;23.30;93.00
22765;DHT22;11549;50.852;3.816;2022-09-30T12:26:32;23.10;92.50
22765;DHT22;11549;50.852;3.816;2022-09-30T12:29:05;23.00;93.20
22765;DHT22;11549;50.852;3.816;2022-09-30T12:32:12;22.80;94.50
22765;DHT22;11549;50.852;3.816;2022-09-30T12:34:55;22.80;94.80
22765;DHT22;11549;50.852;3.816;2022-09-30T12:37:41;22.80;93.60
22765;DHT22;11549;50.852;3.816;2022-09-30T12:40:36;22.60;94.70
22765;DHT22;11549;50.852;3.816;2022-09-30T12:46:17;22.80;92.90
22765;DHT22;11549;50.852;3.816;2022-09-30T12:48:49;22.90;92.50
22765;DHT22;11549;50.852;3.816;2022-09-30T12:51:25;22.60;93.40
22765;DHT22;11549;50.852;3.816;2022-09-30T12:53:58;22.50;93.50
22765;DHT22;11549;50.852;3.816;2022-09-30T12:56:31;22.40;93.20
22765;DHT22;11549;50.852;3.816;2022-09-30T12:59:03;22.30;91.20
22765;DHT22;11549;50.852;3.816;2022-09-30T13:01:34;22.30;91.80
22765;DHT22;11549;50.852;3.816;2022-09-30T13:04:31;21.70;92.80
22765;DHT22;11549;50.852;3.816;2022-09-30T13:07:16;21.50;94.90
22765;DHT22;11549;50.852;3.816;2022-09-30T13:10:15;21.50;94.70
22765;DHT22;11549;50.852;3.816;2022-09-30T13:13:13;21.60;95.60
22765;DHT22;11549;50.852;3.816;2022-09-30T13:15:45;21.60;94.60
22765;DHT22;11549;50.852;3.816;2022-09-30T13:21:24;21.40;95.90
22765;DHT22;11549;50.852;3.816;2022-09-30T13:23:54;21.40;95.40
22765;DHT22;11549;50.852;3.816;2022-09-30T13:29:35;21.50;96.50
22765;DHT22;11549;50.852;3.816;2022-09-30T13:32:09;21.60;94.90
22765;DHT22;11549;50.852;3.816;2022-09-30T13:34:55;21.50;93.40
22765;DHT22;11549;50.852;3.816;2022-09-30T13:37:42;21.40;95.40
22765;DHT22;11549;50.852;3.816;2022-09-30T13:40:17;21.50;94.60
22765;DHT22;11549;50.852;3.816;2022-09-30T13:43:11;21.60;94.90
22765;DHT22;11549;50.852;3.816;2022-09-30T13:45:42;21.40;94.20
22765;DHT22;11549;50.852;3.816;2022-09-30T13:48:14;21.40;94.70
22765;DHT22;11549;50.852;3.816;2022-09-30T13:50:47;21.20;94.20
22765;DHT22;11549;50.852;3.816;2022-09-30T13:53:23;21.20;94.60
22765;DHT22;11549;50.852;3.816;2022-09-30T13:55:55;20.90;94.20
22765;DHT22;11549;50.852;3.816;2022-09-30T14:01:48;20.10;96.20
22765;DHT22;11549;50.852;3.816;2022-09-30T14:04:41;20.20;95.80
22765;DHT22;11549;50.852;3.816;2022-09-30T14:07:16;20.20;96.90
22765;DHT22;11549;50.852;3.816;2022-09-30T14:10:02;20.30;97.30
22765;DHT22;11549;50.852;3.816;2022-09-30T14:12:45;20.40;97.10
22765;DHT22;11549;50.852;3.816;2022-09-30T14:15:43;20.60;97.60
22765;DHT22;11549;50.852;3.816;2022-09-30T14:18:41;20.80;96.90
22765;DHT22;11549;50.852;3.816;2022-09-30T14:21:32;20.90;95.00
22765;DHT22;11549;50.852;3.816;2022-09-30T14:24:09;20.80;95.60
22765;DHT22;11549;50.852;3.816;2022-09-30T14:29:50;20.40;95.70
22765;DHT22;11549;50.852;3.816;2022-09-30T14:32:25;20.40;95.70
22765;DHT22;11549;50.852;3.816;2022-09-30T14:35:06;20.30;95.70
22765;DHT22;11549;50.852;3.816;2022-09-30T14:37:37;20.20;94.20
22765;DHT22;11549;50.852;3.816;2022-09-30T14:40:12;19.80;96.40
22765;DHT22;11549;50.852;3.816;2022-09-30T14:42:44;19.70;97.00
22765;DHT22;11549;50.852;3.816;2022-09-30T14:45:18;19.60;97.00
22765;DHT22;11549;50.852;3.816;2022-09-30T14:47:50;19.60;96.70
22765;DHT22;11549;50.852;3.816;2022-09-30T14:50:24;19.60;96.40
22765;DHT22;11549;50.852;3.816;2022-09-30T14:52:53;19.50;97.00
22765;DHT22;11549;50.852;3.816;2022-09-30T14:55:29;19.40;97.20
22765;DHT22;11549;50.852;3.816;2022-09-30T14:58:21;19.30;97.90
22765;DHT22;11549;50.852;3.816;2022-09-30T15:01:03;19.30;97.60
22765;DHT22;11549;50.852;3.816;2022-09-30T15:03:35;19.20;97.60
22765;DHT22;11549;50.852;3.816;2022-09-30T15:06:04;19.00;98.00
22765;DHT22;11549;50.852;3.816;2022-09-30T15:08:33;18.80;99.10
22765;DHT22;11549;50.852;3.816;2022-09-30T15:11:02;18.70;98.60
22765;DHT22;11549;50.852;3.816;2022-09-30T15:13:32;18.60;99.20
22765;DHT22;11549;50.852;3.816;2022-09-30T15:16:02;18.50;99.00
22765;DHT22;11549;50.852;3.816;2022-09-30T15:18:32;18.60;99.90
22765;DHT22;11549;50.852;3.816;2022-09-30T15:21:07;18.50;98.50
22765;DHT22;11549;50.852;3.816;2022-09-30T15:23:38;18.40;99.70
22765;DHT22;11549;50.852;3.816;2022-09-30T15:26:10;18.40;99.00
22765;DHT22;11549;50.852;3.816;2022-09-30T15:28:40;18.30;99.30
22765;DHT22;11549;50.852;3.816;2022-09-30T15:31:19;18.10;99.90
22765;DHT22;11549;50.852;3.816;2022-09-30T15:33:48;18.10;99.90
22765;DHT22;11549;50.852;3.816;2022-09-30T15:36:29;18.00;99.90
22765;DHT22;11549;50.852;3.816;2022-09-30T15:38:58;18.10;99.90
22765;DHT22;11549;50.852;3.816;2022-09-30T15:41:26;18.00;99.90
22765;DHT22;11549;50.852;3.816;2022-09-30T15:44:00;17.90;99.90
22765;DHT22;11549;50.852;3.816;2022-09-30T15:46:31;17.90;99.90
22765;DHT22;11549;50.852;3.816;2022-09-30T15:49:10;17.80;99.90
22765;DHT22;11549;50.852;3.816;2022-09-30T15:51:55;17.80;99.90
22765;DHT22;11549;50.852;3.816;2022-09-30T15:54:43;17.70;99.90
22765;DHT22;11549;50.852;3.816;2022-09-30T16:00:33;17.60;99.90
22765;DHT22;11549;50.852;3.816;2022-09-30T16:03:12;17.50;99.90
22765;DHT22;11549;50.852;3.816;2022-09-30T16:05:46;17.40;99.90
22765;DHT22;11549;50.852;3.816;2022-09-30T16:08:22;17.30;99.90
22765;DHT22;11549;50.852;3.816;2022-09-30T16:10:53;17.20;99.90
22765;DHT22;11549;50.852;3.816;2022-09-30T16:13:25;17.30;99.90
22765;DHT22;11549;50.852;3.816;2022-09-30T16:15:56;17.20;99.90
22765;DHT22;11549;50.852;3.816;2022-09-30T16:18:26;17.20;99.90
22765;DHT22;11549;50.852;3.816;2022-09-30T16:21:03;17.20;99.90
22765;DHT22;11549;50.852;3.816;2022-09-30T16:23:35;17.10;99.90
22765;DHT22;11549;50.852;3.816;2022-09-30T16:26:20;17.10;99.90
22765;DHT22;11549;50.852;3.816;2022-09-30T16:28:50;17.00;99.90
22765;DHT22;11549;50.852;3.816;2022-09-30T16:31:21;16.90;99.90
22765;DHT22;11549;50.852;3.816;2022-09-30T16:33:49;16.90;99.90
22765;DHT22;11549;50.852;3.816;2022-09-30T16:36:17;16.90;99.90
22765;DHT22;11549;50.852;3.816;2022-09-30T16:38:45;16.90;99.90
22765;DHT22;11549;50.852;3.816;2022-09-30T16:41:13;16.80;99.90
22765;DHT22;11549;50.852;3.816;2022-09-30T16:43:42;16.70;99.90
22765;DHT22;11549;50.852;3.816;2022-09-30T16:46:10;16.60;99.90
22765;DHT22;11549;50.852;3.816;2022-09-30T16:48:40;16.60;99.90
22765;DHT22;11549;50.852;3.816;2022-09-30T16:51:12;16.50;99.90
22765;DHT22;11549;50.852;3.816;2022-09-30T16:53:42;16.50;99.90